Zaliv Vostok — A8RM6 — position and weather

sailwx.info

Track history (hours):
 
Tides and Currents Weather Stations Pressure Air Temp Water Temp Dewpoint Dewpoint Depression Visibility Wind Speed Wind Dir Waves Ship Positions

Zaliv Vostok

Last reported at 2015-Jul-23 02:20 UTC. Time now 2015-Jul-28 17:45 UTC.
Position N 60°09' E 027°41'.

Length 243 m; draft 8.1 m.

Type: Tanker. MMSI: 636014127.

Date/timePositionNaut miles runAvg speedWind from/ knotsBaromVisibWave heightAir tempDewpointWater temp
2015-Jul-23 02:20N 60°09' E 027°41'2714.4
2015-Jul-23 00:27N 59°59' E 026°51'1615.2
2015-Jul-22 23:24N 59°57' E 026°19'4415.4
2015-Jul-22 20:34N 59°46' E 024°55'1515.5
2015-Jul-22 19:34N 59°43' E 024°25'36415.0
2015-Jul-21 19:18N 55°45' E 015°49'1114.9
2015-Jul-21 18:33N 55°40' E 015°31'1515.2
2015-Jul-21 17:33N 55°32' E 015°08'1515.3
2015-Jul-21 16:33N 55°25' E 014°44'1110.5
2015-Jul-21 15:33N 55°18' E 014°31'1514.7
2015-Jul-21 14:33N 55°06' E 014°15'6314.8
2015-Jul-21 10:19N 54°42' E 012°34'1214.9
2015-Jul-21 09:33N 54°35' E 012°18'1313.2
2015-Jul-21 08:34N 54°25' E 012°04'1515.0
2015-Jul-21 07:34N 54°27' E 011°38'1515.2
2015-Jul-21 06:34N 54°34' E 011°15'1514.8
2015-Jul-21 05:33N 54°41' E 010°52'6410.4
2015-Jul-20 23:23N 55°38' E 010°03'11 0.3
2015-Jul-19 14:32N 55°33' E 009°46'89 2.3
2015-Jul-18 00:16N 56°35' E 011°41'7 9.7
2015-Jul-17 23:33N 56°41' E 011°47'10 8.9
2015-Jul-17 22:28N 56°50' E 011°49'1010.6
2015-Jul-17 21:33N 56°60' E 011°43'1311.1
2015-Jul-17 20:23N 57°12' E 011°35'911.5
2015-Jul-17 19:33N 57°21' E 011°29'1110.9
2015-Jul-17 18:33N 57°31' E 011°34'1010.3
2015-Jul-17 17:33N 57°41' E 011°42'6 5.6
2015-Jul-17 16:33N 57°41' E 011°53'0 0.0
2015-Jul-16 20:33N 57°41' E 011°53'0 0.2
2015-Jul-16 19:30N 57°41' E 011°52'0 0.0
2015-Jul-15 18:28N 57°41' E 011°52'1 0.6
2015-Jul-15 17:33N 57°41' E 011°52'6 5.6
2015-Jul-15 16:33N 57°40' E 011°41'7 6.5
2015-Jul-15 15:30N 57°33' E 011°38'0 0.1
2015-Jul-15 14:32N 57°33' E 011°38'0 0.0
2015-Jul-15 13:32N 57°33' E 011°38'0 0.0
2015-Jul-15 12:32N 57°33' E 011°38'0 0.0
2015-Jul-15 11:31N 57°33' E 011°38'0 0.0
2015-Jul-15 10:31N 57°33' E 011°38'0 0.0
2015-Jul-15 09:33N 57°33' E 011°38'0 0.0
2015-Jul-15 08:33N 57°33' E 011°38'0 0.0
2015-Jul-15 07:30N 57°33' E 011°38'1 1.2
2015-Jul-15 06:34N 57°33' E 011°36'1110.5
2015-Jul-15 05:33N 57°32' E 011°16'1212.1
2015-Jul-15 04:33N 57°40' E 010°60'1312.0
2015-Jul-15 03:31N 57°51' E 010°48'1212.2
2015-Jul-15 02:33N 57°53' E 010°26'1412.6
2015-Jul-15 01:26N 57°52' E 010°00'41110.3
2015-Jul-13 09:31N 52°03' E 003°44'9 9.7
2015-Jul-13 08:33N 52°01' E 003°58'7 7.0
2015-Jul-13 07:31N 51°57' E 004°08'  
Track history (hours):
 
Tides and Currents Weather Stations Pressure Air Temp Water Temp Dewpoint Dewpoint Depression Visibility Wind Speed Wind Dir Waves Ship Positions

Zaliv Vostok

Last reported at 2015-Jul-23 02:20 UTC. Time now 2015-Jul-28 17:45 UTC.
Position N 60°09' E 027°41'.

Length 243 m; draft 8.1 m.

Type: Tanker. MMSI: 636014127.

Date/timePositionNaut miles runAvg speedWind from/ knotsBaromVisibWave heightAir tempDewpointWater temp
2015-Jul-23 02:20N 60°09' E 027°41'2714.4
2015-Jul-23 00:27N 59°59' E 026°51'1615.2
2015-Jul-22 23:24N 59°57' E 026°19'4415.4
2015-Jul-22 20:34N 59°46' E 024°55'1515.5
2015-Jul-22 19:34N 59°43' E 024°25'36415.0
2015-Jul-21 19:18N 55°45' E 015°49'1114.9
2015-Jul-21 18:33N 55°40' E 015°31'1515.2
2015-Jul-21 17:33N 55°32' E 015°08'1515.3
2015-Jul-21 16:33N 55°25' E 014°44'1110.5
2015-Jul-21 15:33N 55°18' E 014°31'1514.7
2015-Jul-21 14:33N 55°06' E 014°15'6314.8
2015-Jul-21 10:19N 54°42' E 012°34'1214.9
2015-Jul-21 09:33N 54°35' E 012°18'1313.2
2015-Jul-21 08:34N 54°25' E 012°04'1515.0
2015-Jul-21 07:34N 54°27' E 011°38'1515.2
2015-Jul-21 06:34N 54°34' E 011°15'1514.8
2015-Jul-21 05:33N 54°41' E 010°52'6410.4
2015-Jul-20 23:23N 55°38' E 010°03'11 0.3
2015-Jul-19 14:32N 55°33' E 009°46'89 2.3
2015-Jul-18 00:16N 56°35' E 011°41'7 9.7
2015-Jul-17 23:33N 56°41' E 011°47'10 8.9
2015-Jul-17 22:28N 56°50' E 011°49'1010.6
2015-Jul-17 21:33N 56°60' E 011°43'1311.1
2015-Jul-17 20:23N 57°12' E 011°35'911.5
2015-Jul-17 19:33N 57°21' E 011°29'1110.9
2015-Jul-17 18:33N 57°31' E 011°34'1010.3
2015-Jul-17 17:33N 57°41' E 011°42'6 5.6
2015-Jul-17 16:33N 57°41' E 011°53'0 0.0
2015-Jul-16 20:33N 57°41' E 011°53'0 0.2
2015-Jul-16 19:30N 57°41' E 011°52'0 0.0
2015-Jul-15 18:28N 57°41' E 011°52'1 0.6
2015-Jul-15 17:33N 57°41' E 011°52'6 5.6
2015-Jul-15 16:33N 57°40' E 011°41'7 6.5
2015-Jul-15 15:30N 57°33' E 011°38'0 0.1
2015-Jul-15 14:32N 57°33' E 011°38'0 0.0
2015-Jul-15 13:32N 57°33' E 011°38'0 0.0
2015-Jul-15 12:32N 57°33' E 011°38'0 0.0
2015-Jul-15 11:31N 57°33' E 011°38'0 0.0
2015-Jul-15 10:31N 57°33' E 011°38'0 0.0
2015-Jul-15 09:33N 57°33' E 011°38'0 0.0
2015-Jul-15 08:33N 57°33' E 011°38'0 0.0
2015-Jul-15 07:30N 57°33' E 011°38'1 1.2
2015-Jul-15 06:34N 57°33' E 011°36'1110.5
2015-Jul-15 05:33N 57°32' E 011°16'1212.1
2015-Jul-15 04:33N 57°40' E 010°60'1312.0
2015-Jul-15 03:31N 57°51' E 010°48'1212.2
2015-Jul-15 02:33N 57°53' E 010°26'1412.6
2015-Jul-15 01:26N 57°52' E 010°00'41110.3
2015-Jul-13 09:31N 52°03' E 003°44'9 9.7
2015-Jul-13 08:33N 52°01' E 003°58'7 7.0
2015-Jul-13 07:31N 51°57' E 004°08'  

Dump ship's entire track history